Saint-Agapit, Canada
Current Conditions -  °F | °C
As of 4:00 AM on Monday 20 Oct 2014 (Local Time) from CYQB Reporting Station
Overcast Overcast  
Wind Chill: 29°   Ceiling: 3500
Heat Index: 36°   Visibility: 15mi
Dew Point: 28°   Wind: 9mph
Humidity: 75%   Direction: 210°SSW
Pressure: 29.88"   Gusts: NA
Location:  46.57°N, 71.43°W
Report Text: CYQB 200800Z 21008KT 15SM OVC035 02/M02 A2988 RMK SC8 SLP120
Loading
Personal Weather Stations






























Interactive Weather Map
Tropical Storm Tracking
New forecast layout! Learn more

10-Day Weather Forecast

Advertisements
Track Severe Weather on mobile